Bilbao, Spain

7:35 AM CEST on July 23, 2014 (GMT +0200)
Campo Volantin (IPASVASC6) Elev 200 ft | 43.27 °N, 2.93 °W | Change Station

Current weather conditions updated 12 minutes ago

Mostly Cloudy
Mostly Cloudy
67.1 °F
Feels Like 67.1 °F
N
0.0
Wind Variable Wind from SSE
Gusts 2.0 mph

Today is forecast to be Warmer than yesterday.

Today
High -- | Low -- °F
--% Chance of Precip.
Yesterday
High -- | Low -- °F
Precip. -- in
6:52 AM 9:43 PM
Waning Crescent, 12% visible
Pressure 30.01 in
Visibility 6.2 miles
Clouds Mostly Cloudy 3000 ft
Dew Point 62 °F
Humidity 84%
Rainfall 0.00 in
Snow Depth Not available.
UV 0 out of 12
Pollen Not available.
Air Quality Not available.
Flu Activity Not available.
METAR LEBB 230430Z 00000KT 9999 BKN030 19/18 Q1016 NOSIG

More Conditions Fewer Conditions

Pressure 30.01 in
Visibility 6.2 miles
Clouds Mostly Cloudy 3000 ft
Dew Point 62 °F
Humidity 84%
Rainfall 0.00 in
Snow Depth Not available.
UV 0 out of 12
Pollen Not available.
Air Quality Not available.
Flu Activity Not available.
METAR LEBB 230430Z 00000KT 9999 BKN030 19/18 Q1016 NOSIG

More Conditions Fewer Conditions

10-Day Weather Forecast

Almanac

Astronomy

Jul. 23, 2014 Rise Set
Actual Time 6:52 AM CEST 9:43 PM CEST
Civil Twilight 6:18 AM CEST 10:16 PM CEST
Nautical Twilight 5:36 AM CEST 10:59 PM CEST
Astronomical Twilight 4:46 AM CEST 11:48 PM CEST
Moon 4:00 AM CEST 6:59 PM CEST
Length Of Visible Light 15h 58m
Length of Day
14h 51m
Tomorrow will be 1m 56s shorter.
Waning Crescent, 12% of the Moon is Illuminated
Today
Waning Crescent
Jul 26
New
Aug 3
First Quarter
Aug 10
Full
Aug 17
Last Quarter

Yesterday's Extremes

Country Highs Country Lows

Community

WunderPhotos

Upload Photos

1,736,513 photos uploaded!

Nearby

Snow Depth

Not available.

Earthquake Activity

City Distance Mag. Time & Date
No recent earthquake activity has been reported nearby.
Minimum magnitude displayed is 2.5.

Coastal Water Temperatures

Place Temperature
No Stations Reporting

Nearby Weather Stations

Station Location Temp. Dew Point Humidity Wind Precip. Elev Updated Type
Campo Volantin, Bilbao 67.1 °F 62 °F 84% SSE  at  0.0 mph 0.00 in / hr 200 ft 7:22 AM CEST Normal
Txurdinaga, Bilbao 65.1 °F 62 °F 88% ENE  at  0.0 mph 0.00 in / hr 296 ft 7:35 AM CEST Rapid Fire
EA2CMS-Lamiako (Leioa), Leioa 67.3 °F 63 °F 87% East  at  2.1 mph 0.00 in / hr 13 ft 7:35 AM CEST Rapid Fire
Basozelai, Basauri 64.0 °F 62 °F 93% SE  at  1.0 mph 0.00 in / hr 272 ft 7:34 AM CEST Rapid Fire
Algorta, Getxo 68.0 °F 64 °F 86% East  at  0.7 mph 0.00 in / hr 150 ft 7:35 AM CEST Normal

Show More Stations Show Fewer Stations